Profile cover photo
Profile photo
Gregor Szielasko
17 followers
17 followers
About
Posts

Post has attachment

Post has attachment
Lüneburger Flugplatzfest 2016

Post has attachment
Lüneburger Flugplatzfest 2016

EDDH 090820Z 29013KT 240V310 9999 SCT024 SCT270 17/13 Q1016 NOSIG

EDDV 090820Z 27014KT 240V300 9999 SCT030 BKN270 18/12 Q1018 NOSIG

Post has attachment

Post has attachment

Post has attachment

Post has attachment

Post has attachment
Wait while more posts are being loaded